sensor_id;sensor_type;location;lat;lon;timestamp;P1;durP1;ratioP1;P2;durP2;ratioP2
32200;SDS011;18701;45.588;5.288;2022-12-22T00:01:38;5.32;;;0.65;;
32200;SDS011;18701;45.588;5.288;2022-12-22T00:04:24;3.78;;;0.80;;
32200;SDS011;18701;45.588;5.288;2022-12-22T00:07:08;1.90;;;0.80;;
32200;SDS011;18701;45.588;5.288;2022-12-22T00:09:52;1.40;;;0.50;;
32200;SDS011;18701;45.588;5.288;2022-12-22T00:12:36;3.58;;;3.17;;
32200;SDS011;18701;45.588;5.288;2022-12-22T00:15:21;2.20;;;0.70;;
32200;SDS011;18701;45.588;5.288;2022-12-22T00:18:12;1.73;;;0.45;;
32200;SDS011;18701;45.588;5.288;2022-12-22T00:20:58;2.63;;;0.52;;
32200;SDS011;18701;45.588;5.288;2022-12-22T00:23:42;2.30;;;0.68;;
32200;SDS011;18701;45.588;5.288;2022-12-22T00:26:27;4.55;;;0.60;;
32200;SDS011;18701;45.588;5.288;2022-12-22T00:29:13;2.38;;;0.52;;
32200;SDS011;18701;45.588;5.288;2022-12-22T00:31:58;2.67;;;0.52;;
32200;SDS011;18701;45.588;5.288;2022-12-22T00:34:42;0.80;;;0.40;;
32200;SDS011;18701;45.588;5.288;2022-12-22T00:37:30;2.95;;;0.30;;
32200;SDS011;18701;45.588;5.288;2022-12-22T00:40:17;4.10;;;0.55;;
32200;SDS011;18701;45.588;5.288;2022-12-22T00:43:02;4.15;;;1.40;;
32200;SDS011;18701;45.588;5.288;2022-12-22T00:45:46;3.85;;;2.92;;
32200;SDS011;18701;45.588;5.288;2022-12-22T00:48:31;3.97;;;2.15;;
32200;SDS011;18701;45.588;5.288;2022-12-22T00:51:15;3.53;;;0.35;;
32200;SDS011;18701;45.588;5.288;2022-12-22T00:54:00;2.42;;;0.93;;
32200;SDS011;18701;45.588;5.288;2022-12-22T00:56:45;2.53;;;0.40;;
32200;SDS011;18701;45.588;5.288;2022-12-22T01:02:13;1.42;;;0.40;;
32200;SDS011;18701;45.588;5.288;2022-12-22T01:04:58;6.50;;;3.58;;
32200;SDS011;18701;45.588;5.288;2022-12-22T01:07:41;2.28;;;0.38;;
32200;SDS011;18701;45.588;5.288;2022-12-22T01:10:26;3.95;;;1.00;;
32200;SDS011;18701;45.588;5.288;2022-12-22T01:13:11;2.08;;;0.43;;
32200;SDS011;18701;45.588;5.288;2022-12-22T01:15:56;2.70;;;0.32;;
32200;SDS011;18701;45.588;5.288;2022-12-22T01:18:40;8.50;;;2.30;;
32200;SDS011;18701;45.588;5.288;2022-12-22T01:21:25;5.75;;;4.80;;
32200;SDS011;18701;45.588;5.288;2022-12-22T01:24:10;12.75;;;11.65;;
32200;SDS011;18701;45.588;5.288;2022-12-22T01:26:59;5.10;;;4.72;;
32200;SDS011;18701;45.588;5.288;2022-12-22T01:29:43;9.43;;;4.25;;
32200;SDS011;18701;45.588;5.288;2022-12-22T01:32:27;3.85;;;0.90;;
32200;SDS011;18701;45.588;5.288;2022-12-22T01:38:02;3.92;;;1.73;;
32200;SDS011;18701;45.588;5.288;2022-12-22T01:40:46;1.90;;;1.70;;
32200;SDS011;18701;45.588;5.288;2022-12-22T01:43:30;4.38;;;2.83;;
32200;SDS011;18701;45.588;5.288;2022-12-22T01:49:37;4.80;;;4.22;;
32200;SDS011;18701;45.588;5.288;2022-12-22T01:52:29;6.15;;;5.50;;
32200;SDS011;18701;45.588;5.288;2022-12-22T01:55:19;3.88;;;1.60;;
32200;SDS011;18701;45.588;5.288;2022-12-22T01:58:05;7.80;;;7.10;;
32200;SDS011;18701;45.588;5.288;2022-12-22T02:00:58;1.85;;;0.77;;
32200;SDS011;18701;45.588;5.288;2022-12-22T02:03:42;6.13;;;5.20;;
32200;SDS011;18701;45.588;5.288;2022-12-22T02:06:28;4.47;;;2.88;;
32200;SDS011;18701;45.588;5.288;2022-12-22T02:15:56;7.45;;;6.55;;
32200;SDS011;18701;45.588;5.288;2022-12-22T02:18:53;2.15;;;1.20;;
32200;SDS011;18701;45.588;5.288;2022-12-22T02:21:47;4.70;;;2.50;;
32200;SDS011;18701;45.588;5.288;2022-12-22T02:25:02;10.52;;;9.15;;
32200;SDS011;18701;45.588;5.288;2022-12-22T02:27:52;6.28;;;5.68;;
32200;SDS011;18701;45.588;5.288;2022-12-22T02:30:38;5.35;;;2.80;;
32200;SDS011;18701;45.588;5.288;2022-12-22T02:33:23;7.40;;;6.18;;
32200;SDS011;18701;45.588;5.288;2022-12-22T02:36:20;4.00;;;0.93;;
32200;SDS011;18701;45.588;5.288;2022-12-22T02:42:28;8.10;;;3.70;;
32200;SDS011;18701;45.588;5.288;2022-12-22T02:45:38;10.02;;;8.48;;
32200;SDS011;18701;45.588;5.288;2022-12-22T02:48:39;8.20;;;7.33;;
32200;SDS011;18701;45.588;5.288;2022-12-22T02:51:28;5.30;;;3.47;;
32200;SDS011;18701;45.588;5.288;2022-12-22T02:54:17;6.20;;;1.17;;
32200;SDS011;18701;45.588;5.288;2022-12-22T02:57:05;7.70;;;1.63;;
32200;SDS011;18701;45.588;5.288;2022-12-22T02:59:49;3.83;;;0.38;;
32200;SDS011;18701;45.588;5.288;2022-12-22T03:02:33;3.00;;;0.50;;
32200;SDS011;18701;45.588;5.288;2022-12-22T03:05:18;9.02;;;4.35;;
32200;SDS011;18701;45.588;5.288;2022-12-22T03:08:02;2.53;;;0.40;;
32200;SDS011;18701;45.588;5.288;2022-12-22T03:10:46;4.55;;;0.82;;
32200;SDS011;18701;45.588;5.288;2022-12-22T03:13:30;1.75;;;0.32;;
32200;SDS011;18701;45.588;5.288;2022-12-22T03:16:14;1.50;;;0.40;;
32200;SDS011;18701;45.588;5.288;2022-12-22T03:18:58;2.58;;;0.30;;
32200;SDS011;18701;45.588;5.288;2022-12-22T03:21:42;1.67;;;0.50;;
32200;SDS011;18701;45.588;5.288;2022-12-22T03:24:26;2.15;;;0.30;;
32200;SDS011;18701;45.588;5.288;2022-12-22T03:27:10;0.95;;;0.20;;
32200;SDS011;18701;45.588;5.288;2022-12-22T03:29:35;2.58;;;0.30;;
32200;SDS011;18701;45.588;5.288;2022-12-22T03:32:01;1.50;;;0.30;;
32200;SDS011;18701;45.588;5.288;2022-12-22T03:34:27;3.47;;;0.57;;
32200;SDS011;18701;45.588;5.288;2022-12-22T03:36:52;4.07;;;0.50;;
32200;SDS011;18701;45.588;5.288;2022-12-22T03:39:18;1.08;;;0.20;;
32200;SDS011;18701;45.588;5.288;2022-12-22T03:41:43;1.77;;;0.35;;
32200;SDS011;18701;45.588;5.288;2022-12-22T03:44:28;3.95;;;0.30;;
32200;SDS011;18701;45.588;5.288;2022-12-22T03:47:12;2.58;;;0.30;;
32200;SDS011;18701;45.588;5.288;2022-12-22T03:49:37;2.28;;;0.22;;
32200;SDS011;18701;45.588;5.288;2022-12-22T03:52:03;1.08;;;0.28;;
32200;SDS011;18701;45.588;5.288;2022-12-22T03:54:28;3.00;;;0.63;;
32200;SDS011;18701;45.588;5.288;2022-12-22T03:56:54;4.95;;;0.20;;
32200;SDS011;18701;45.588;5.288;2022-12-22T03:59:20;1.50;;;0.30;;
32200;SDS011;18701;45.588;5.288;2022-12-22T04:01:50;1.15;;;0.20;;
32200;SDS011;18701;45.588;5.288;2022-12-22T04:04:19;1.50;;;0.20;;
32200;SDS011;18701;45.588;5.288;2022-12-22T04:06:46;4.18;;;0.30;;
32200;SDS011;18701;45.588;5.288;2022-12-22T04:09:12;2.47;;;0.38;;
32200;SDS011;18701;45.588;5.288;2022-12-22T04:11:38;4.78;;;0.43;;
32200;SDS011;18701;45.588;5.288;2022-12-22T04:14:23;2.17;;;0.25;;
32200;SDS011;18701;45.588;5.288;2022-12-22T04:16:49;1.88;;;0.45;;
32200;SDS011;18701;45.588;5.288;2022-12-22T04:19:14;1.88;;;0.30;;
32200;SDS011;18701;45.588;5.288;2022-12-22T04:21:41;2.58;;;0.20;;
32200;SDS011;18701;45.588;5.288;2022-12-22T04:24:07;1.75;;;0.30;;
32200;SDS011;18701;45.588;5.288;2022-12-22T04:26:35;1.90;;;0.17;;
32200;SDS011;18701;45.588;5.288;2022-12-22T04:29:00;3.50;;;0.32;;
32200;SDS011;18701;45.588;5.288;2022-12-22T04:31:26;3.28;;;0.30;;
32200;SDS011;18701;45.588;5.288;2022-12-22T04:33:52;1.63;;;0.20;;
32200;SDS011;18701;45.588;5.288;2022-12-22T04:36:17;3.08;;;0.13;;
32200;SDS011;18701;45.588;5.288;2022-12-22T04:38:43;1.38;;;0.20;;
32200;SDS011;18701;45.588;5.288;2022-12-22T04:41:09;1.92;;;0.32;;
32200;SDS011;18701;45.588;5.288;2022-12-22T04:43:35;3.15;;;0.30;;
32200;SDS011;18701;45.588;5.288;2022-12-22T04:46:01;2.35;;;0.30;;
32200;SDS011;18701;45.588;5.288;2022-12-22T04:48:28;0.95;;;0.20;;
32200;SDS011;18701;45.588;5.288;2022-12-22T04:50:55;4.50;;;0.32;;
32200;SDS011;18701;45.588;5.288;2022-12-22T04:53:22;2.75;;;0.20;;
32200;SDS011;18701;45.588;5.288;2022-12-22T04:55:50;3.95;;;0.32;;
32200;SDS011;18701;45.588;5.288;2022-12-22T04:58:23;1.80;;;0.35;;
32200;SDS011;18701;45.588;5.288;2022-12-22T05:00:48;5.22;;;0.57;;
32200;SDS011;18701;45.588;5.288;2022-12-22T05:03:14;4.50;;;0.40;;
32200;SDS011;18701;45.588;5.288;2022-12-22T05:05:40;4.10;;;0.80;;
32200;SDS011;18701;45.588;5.288;2022-12-22T05:08:05;4.05;;;0.50;;
32200;SDS011;18701;45.588;5.288;2022-12-22T05:10:31;2.50;;;0.40;;
32200;SDS011;18701;45.588;5.288;2022-12-22T05:12:56;1.65;;;0.35;;
32200;SDS011;18701;45.588;5.288;2022-12-22T05:15:24;2.42;;;0.50;;
32200;SDS011;18701;45.588;5.288;2022-12-22T05:17:54;1.88;;;0.38;;
32200;SDS011;18701;45.588;5.288;2022-12-22T05:20:21;7.97;;;0.60;;
32200;SDS011;18701;45.588;5.288;2022-12-22T05:22:47;3.70;;;0.60;;
32200;SDS011;18701;45.588;5.288;2022-12-22T05:25:13;3.38;;;0.45;;
32200;SDS011;18701;45.588;5.288;2022-12-22T05:27:44;2.63;;;0.47;;
32200;SDS011;18701;45.588;5.288;2022-12-22T05:30:11;4.28;;;0.40;;
32200;SDS011;18701;45.588;5.288;2022-12-22T05:32:37;5.07;;;0.82;;
32200;SDS011;18701;45.588;5.288;2022-12-22T05:35:03;1.77;;;0.28;;
32200;SDS011;18701;45.588;5.288;2022-12-22T05:37:29;3.47;;;0.65;;
32200;SDS011;18701;45.588;5.288;2022-12-22T05:39:56;3.20;;;0.50;;
32200;SDS011;18701;45.588;5.288;2022-12-22T05:42:22;8.32;;;1.00;;
32200;SDS011;18701;45.588;5.288;2022-12-22T05:47:30;5.28;;;0.43;;
32200;SDS011;18701;45.588;5.288;2022-12-22T05:49:55;2.15;;;0.20;;
32200;SDS011;18701;45.588;5.288;2022-12-22T05:52:21;5.32;;;0.80;;
32200;SDS011;18701;45.588;5.288;2022-12-22T05:54:47;4.10;;;0.57;;
32200;SDS011;18701;45.588;5.288;2022-12-22T05:57:12;4.10;;;0.50;;
32200;SDS011;18701;45.588;5.288;2022-12-22T05:59:38;4.53;;;0.50;;
32200;SDS011;18701;45.588;5.288;2022-12-22T06:02:03;4.65;;;0.60;;
32200;SDS011;18701;45.588;5.288;2022-12-22T06:04:29;4.68;;;0.70;;
32200;SDS011;18701;45.588;5.288;2022-12-22T06:06:55;5.70;;;0.95;;
32200;SDS011;18701;45.588;5.288;2022-12-22T06:09:20;5.20;;;0.63;;
32200;SDS011;18701;45.588;5.288;2022-12-22T06:11:46;3.50;;;0.65;;
32200;SDS011;18701;45.588;5.288;2022-12-22T06:14:11;3.55;;;0.32;;
32200;SDS011;18701;45.588;5.288;2022-12-22T06:16:37;3.42;;;0.60;;
32200;SDS011;18701;45.588;5.288;2022-12-22T06:19:02;2.85;;;0.50;;
32200;SDS011;18701;45.588;5.288;2022-12-22T06:21:28;7.10;;;0.80;;
32200;SDS011;18701;45.588;5.288;2022-12-22T06:23:54;3.47;;;0.60;;
32200;SDS011;18701;45.588;5.288;2022-12-22T06:26:20;5.28;;;0.82;;
32200;SDS011;18701;45.588;5.288;2022-12-22T06:28:45;3.72;;;0.63;;
32200;SDS011;18701;45.588;5.288;2022-12-22T06:31:12;8.13;;;0.80;;
32200;SDS011;18701;45.588;5.288;2022-12-22T06:33:38;6.15;;;0.63;;
32200;SDS011;18701;45.588;5.288;2022-12-22T06:36:04;4.68;;;0.60;;
32200;SDS011;18701;45.588;5.288;2022-12-22T06:38:31;4.93;;;0.60;;
32200;SDS011;18701;45.588;5.288;2022-12-22T06:40:57;7.20;;;0.40;;
32200;SDS011;18701;45.588;5.288;2022-12-22T06:43:22;6.53;;;0.75;;
32200;SDS011;18701;45.588;5.288;2022-12-22T06:45:48;7.32;;;0.73;;
32200;SDS011;18701;45.588;5.288;2022-12-22T06:48:14;5.45;;;0.63;;
32200;SDS011;18701;45.588;5.288;2022-12-22T06:50:40;4.85;;;1.00;;
32200;SDS011;18701;45.588;5.288;2022-12-22T06:53:06;7.15;;;1.15;;
32200;SDS011;18701;45.588;5.288;2022-12-22T06:55:32;7.68;;;0.80;;
32200;SDS011;18701;45.588;5.288;2022-12-22T06:57:58;5.40;;;1.08;;
32200;SDS011;18701;45.588;5.288;2022-12-22T07:00:23;5.90;;;0.88;;
32200;SDS011;18701;45.588;5.288;2022-12-22T07:02:49;9.45;;;3.60;;
32200;SDS011;18701;45.588;5.288;2022-12-22T07:05:15;14.75;;;10.85;;
32200;SDS011;18701;45.588;5.288;2022-12-22T07:07:41;20.33;;;15.68;;
32200;SDS011;18701;45.588;5.288;2022-12-22T07:10:07;5.45;;;1.50;;
32200;SDS011;18701;45.588;5.288;2022-12-22T07:12:33;6.82;;;0.90;;
32200;SDS011;18701;45.588;5.288;2022-12-22T07:14:58;12.85;;;9.68;;
32200;SDS011;18701;45.588;5.288;2022-12-22T07:17:24;6.35;;;2.50;;
32200;SDS011;18701;45.588;5.288;2022-12-22T07:19:50;9.25;;;3.42;;
32200;SDS011;18701;45.588;5.288;2022-12-22T07:22:15;13.80;;;6.75;;
32200;SDS011;18701;45.588;5.288;2022-12-22T07:24:41;7.72;;;4.28;;
32200;SDS011;18701;45.588;5.288;2022-12-22T07:27:06;6.28;;;2.03;;
32200;SDS011;18701;45.588;5.288;2022-12-22T07:29:32;6.72;;;3.90;;
32200;SDS011;18701;45.588;5.288;2022-12-22T07:32:00;7.80;;;2.35;;
32200;SDS011;18701;45.588;5.288;2022-12-22T07:34:25;13.50;;;8.85;;
32200;SDS011;18701;45.588;5.288;2022-12-22T07:36:51;16.13;;;12.18;;
32200;SDS011;18701;45.588;5.288;2022-12-22T07:39:16;5.55;;;4.47;;
32200;SDS011;18701;45.588;5.288;2022-12-22T07:41:42;7.20;;;2.58;;
32200;SDS011;18701;45.588;5.288;2022-12-22T07:44:27;7.57;;;5.30;;
32200;SDS011;18701;45.588;5.288;2022-12-22T07:46:52;12.10;;;8.23;;
32200;SDS011;18701;45.588;5.288;2022-12-22T07:49:18;10.05;;;3.25;;
32200;SDS011;18701;45.588;5.288;2022-12-22T07:52:02;5.95;;;4.65;;
32200;SDS011;18701;45.588;5.288;2022-12-22T07:54:28;15.50;;;13.23;;
32200;SDS011;18701;45.588;5.288;2022-12-22T07:56:53;17.65;;;15.75;;
32200;SDS011;18701;45.588;5.288;2022-12-22T07:59:19;21.10;;;14.02;;
32200;SDS011;18701;45.588;5.288;2022-12-22T08:01:45;19.05;;;16.27;;
32200;SDS011;18701;45.588;5.288;2022-12-22T08:04:11;15.43;;;10.50;;
32200;SDS011;18701;45.588;5.288;2022-12-22T08:06:38;4.53;;;1.30;;
32200;SDS011;18701;45.588;5.288;2022-12-22T08:09:04;12.05;;;6.32;;
32200;SDS011;18701;45.588;5.288;2022-12-22T08:11:31;10.65;;;4.90;;
32200;SDS011;18701;45.588;5.288;2022-12-22T08:13:56;9.38;;;5.57;;
32200;SDS011;18701;45.588;5.288;2022-12-22T08:16:22;23.65;;;18.33;;
32200;SDS011;18701;45.588;5.288;2022-12-22T08:18:48;10.65;;;4.70;;
32200;SDS011;18701;45.588;5.288;2022-12-22T08:21:14;6.10;;;2.30;;
32200;SDS011;18701;45.588;5.288;2022-12-22T08:23:40;12.00;;;7.07;;
32200;SDS011;18701;45.588;5.288;2022-12-22T08:26:17;5.45;;;1.95;;
32200;SDS011;18701;45.588;5.288;2022-12-22T08:29:05;8.80;;;4.13;;
32200;SDS011;18701;45.588;5.288;2022-12-22T08:31:31;11.93;;;6.45;;
32200;SDS011;18701;45.588;5.288;2022-12-22T08:33:57;12.15;;;6.57;;
32200;SDS011;18701;45.588;5.288;2022-12-22T08:36:26;12.32;;;6.25;;
32200;SDS011;18701;45.588;5.288;2022-12-22T08:38:53;6.07;;;1.45;;
32200;SDS011;18701;45.588;5.288;2022-12-22T08:41:20;8.38;;;3.05;;
32200;SDS011;18701;45.588;5.288;2022-12-22T08:44:05;10.82;;;3.75;;
32200;SDS011;18701;45.588;5.288;2022-12-22T08:46:31;10.57;;;4.65;;
32200;SDS011;18701;45.588;5.288;2022-12-22T08:48:57;6.93;;;3.65;;
32200;SDS011;18701;45.588;5.288;2022-12-22T08:51:23;7.53;;;3.05;;
32200;SDS011;18701;45.588;5.288;2022-12-22T08:53:49;8.50;;;3.50;;
32200;SDS011;18701;45.588;5.288;2022-12-22T08:56:14;7.18;;;2.42;;
32200;SDS011;18701;45.588;5.288;2022-12-22T08:58:40;8.27;;;3.28;;
32200;SDS011;18701;45.588;5.288;2022-12-22T09:01:05;9.27;;;1.10;;
32200;SDS011;18701;45.588;5.288;2022-12-22T09:03:31;12.35;;;1.27;;
32200;SDS011;18701;45.588;5.288;2022-12-22T09:06:00;9.18;;;2.75;;
32200;SDS011;18701;45.588;5.288;2022-12-22T09:08:26;9.40;;;4.13;;
32200;SDS011;18701;45.588;5.288;2022-12-22T09:10:51;11.32;;;5.80;;
32200;SDS011;18701;45.588;5.288;2022-12-22T09:13:17;8.00;;;2.97;;
32200;SDS011;18701;45.588;5.288;2022-12-22T09:15:43;16.00;;;6.80;;
32200;SDS011;18701;45.588;5.288;2022-12-22T09:18:09;11.25;;;4.13;;
32200;SDS011;18701;45.588;5.288;2022-12-22T09:20:34;11.35;;;2.28;;
32200;SDS011;18701;45.588;5.288;2022-12-22T09:23:00;5.82;;;0.98;;
32200;SDS011;18701;45.588;5.288;2022-12-22T09:25:26;8.68;;;1.52;;
32200;SDS011;18701;45.588;5.288;2022-12-22T09:27:51;11.57;;;2.67;;
32200;SDS011;18701;45.588;5.288;2022-12-22T09:30:17;15.32;;;2.35;;
32200;SDS011;18701;45.588;5.288;2022-12-22T09:32:43;14.23;;;7.05;;
32200;SDS011;18701;45.588;5.288;2022-12-22T09:35:08;11.20;;;1.73;;
32200;SDS011;18701;45.588;5.288;2022-12-22T09:37:34;8.95;;;3.20;;
32200;SDS011;18701;45.588;5.288;2022-12-22T09:39:59;7.10;;;2.55;;
32200;SDS011;18701;45.588;5.288;2022-12-22T09:42:25;11.90;;;3.10;;
32200;SDS011;18701;45.588;5.288;2022-12-22T09:44:51;10.13;;;2.42;;
32200;SDS011;18701;45.588;5.288;2022-12-22T09:47:25;16.40;;;5.35;;
32200;SDS011;18701;45.588;5.288;2022-12-22T09:50:00;13.40;;;7.10;;
32200;SDS011;18701;45.588;5.288;2022-12-22T09:54:59;15.52;;;5.13;;
32200;SDS011;18701;45.588;5.288;2022-12-22T09:57:28;12.68;;;4.13;;
32200;SDS011;18701;45.588;5.288;2022-12-22T10:00:05;10.13;;;3.63;;
32200;SDS011;18701;45.588;5.288;2022-12-22T10:08:14;10.35;;;1.27;;
32200;SDS011;18701;45.588;5.288;2022-12-22T10:10:54;9.85;;;1.20;;
32200;SDS011;18701;45.588;5.288;2022-12-22T10:13:20;7.13;;;1.27;;
32200;SDS011;18701;45.588;5.288;2022-12-22T10:15:46;8.95;;;2.10;;
32200;SDS011;18701;45.588;5.288;2022-12-22T10:18:20;10.50;;;1.60;;
32200;SDS011;18701;45.588;5.288;2022-12-22T10:23:28;8.35;;;1.35;;
32200;SDS011;18701;45.588;5.288;2022-12-22T10:28:22;12.63;;;2.28;;
32200;SDS011;18701;45.588;5.288;2022-12-22T10:31:07;13.38;;;1.98;;
32200;SDS011;18701;45.588;5.288;2022-12-22T10:33:34;17.48;;;1.50;;
32200;SDS011;18701;45.588;5.288;2022-12-22T10:36:00;19.92;;;8.85;;
32200;SDS011;18701;45.588;5.288;2022-12-22T10:38:36;13.20;;;7.75;;
32200;SDS011;18701;45.588;5.288;2022-12-22T10:41:14;11.95;;;3.42;;
32200;SDS011;18701;45.588;5.288;2022-12-22T10:43:47;11.38;;;2.72;;
32200;SDS011;18701;45.588;5.288;2022-12-22T10:46:17;9.93;;;2.05;;
32200;SDS011;18701;45.588;5.288;2022-12-22T10:48:52;7.07;;;1.67;;
32200;SDS011;18701;45.588;5.288;2022-12-22T10:51:31;10.38;;;2.13;;
32200;SDS011;18701;45.588;5.288;2022-12-22T10:53:57;14.88;;;4.55;;
32200;SDS011;18701;45.588;5.288;2022-12-22T10:56:24;12.52;;;1.73;;
32200;SDS011;18701;45.588;5.288;2022-12-22T10:58:55;11.15;;;1.98;;
32200;SDS011;18701;45.588;5.288;2022-12-22T11:01:30;12.80;;;3.13;;
32200;SDS011;18701;45.588;5.288;2022-12-22T11:04:13;15.50;;;6.45;;
32200;SDS011;18701;45.588;5.288;2022-12-22T11:06:47;14.68;;;2.90;;
32200;SDS011;18701;45.588;5.288;2022-12-22T11:09:13;10.73;;;1.55;;
32200;SDS011;18701;45.588;5.288;2022-12-22T11:14:43;8.15;;;1.40;;
32200;SDS011;18701;45.588;5.288;2022-12-22T11:17:39;14.40;;;2.05;;
32200;SDS011;18701;45.588;5.288;2022-12-22T11:39:12;11.70;;;1.88;;
32200;SDS011;18701;45.588;5.288;2022-12-22T11:44:48;11.75;;;1.58;;
32200;SDS011;18701;45.588;5.288;2022-12-22T11:47:46;8.48;;;1.40;;
32200;SDS011;18701;45.588;5.288;2022-12-22T11:50:17;9.52;;;1.63;;
32200;SDS011;18701;45.588;5.288;2022-12-22T11:56:35;8.20;;;1.60;;
32200;SDS011;18701;45.588;5.288;2022-12-22T12:07:35;13.30;;;2.05;;
32200;SDS011;18701;45.588;5.288;2022-12-22T12:15:46;9.60;;;1.35;;
32200;SDS011;18701;45.588;5.288;2022-12-22T12:21:01;11.10;;;1.80;;
32200;SDS011;18701;45.588;5.288;2022-12-22T12:23:38;9.95;;;2.10;;
32200;SDS011;18701;45.588;5.288;2022-12-22T12:26:30;17.05;;;2.72;;
32200;SDS011;18701;45.588;5.288;2022-12-22T12:29:04;14.55;;;2.15;;
32200;SDS011;18701;45.588;5.288;2022-12-22T12:31:36;13.98;;;2.10;;
32200;SDS011;18701;45.588;5.288;2022-12-22T12:34:10;9.55;;;1.33;;
32200;SDS011;18701;45.588;5.288;2022-12-22T12:36:42;16.05;;;2.38;;
32200;SDS011;18701;45.588;5.288;2022-12-22T12:39:28;16.02;;;2.00;;
32200;SDS011;18701;45.588;5.288;2022-12-22T12:55:24;16.92;;;2.65;;
32200;SDS011;18701;45.588;5.288;2022-12-22T12:57:50;16.20;;;2.00;;
32200;SDS011;18701;45.588;5.288;2022-12-22T13:02:58;18.05;;;5.95;;
32200;SDS011;18701;45.588;5.288;2022-12-22T13:05:48;20.02;;;5.75;;
32200;SDS011;18701;45.588;5.288;2022-12-22T13:08:18;19.77;;;5.45;;
32200;SDS011;18701;45.588;5.288;2022-12-22T13:10:46;11.20;;;1.73;;
32200;SDS011;18701;45.588;5.288;2022-12-22T13:20:57;19.85;;;4.22;;
32200;SDS011;18701;45.588;5.288;2022-12-22T13:23:27;15.02;;;3.03;;
32200;SDS011;18701;45.588;5.288;2022-12-22T13:25:57;24.27;;;8.27;;
32200;SDS011;18701;45.588;5.288;2022-12-22T13:28:26;32.00;;;13.02;;
32200;SDS011;18701;45.588;5.288;2022-12-22T13:31:00;14.68;;;4.25;;
32200;SDS011;18701;45.588;5.288;2022-12-22T13:33:30;12.40;;;2.05;;
32200;SDS011;18701;45.588;5.288;2022-12-22T13:36:00;14.02;;;2.20;;
32200;SDS011;18701;45.588;5.288;2022-12-22T13:38:32;22.85;;;6.25;;
32200;SDS011;18701;45.588;5.288;2022-12-22T13:41:04;20.23;;;3.00;;
32200;SDS011;18701;45.588;5.288;2022-12-22T13:43:37;19.85;;;2.83;;
32200;SDS011;18701;45.588;5.288;2022-12-22T13:46:06;17.85;;;3.47;;
32200;SDS011;18701;45.588;5.288;2022-12-22T13:48:37;15.70;;;3.47;;
32200;SDS011;18701;45.588;5.288;2022-12-22T13:51:07;14.38;;;2.00;;
32200;SDS011;18701;45.588;5.288;2022-12-22T13:53:42;14.82;;;2.03;;
32200;SDS011;18701;45.588;5.288;2022-12-22T13:56:12;12.60;;;1.88;;
32200;SDS011;18701;45.588;5.288;2022-12-22T13:58:41;12.43;;;2.00;;
32200;SDS011;18701;45.588;5.288;2022-12-22T14:03:37;13.95;;;2.22;;
32200;SDS011;18701;45.588;5.288;2022-12-22T14:08:47;12.23;;;2.35;;
32200;SDS011;18701;45.588;5.288;2022-12-22T14:11:13;11.27;;;1.92;;
32200;SDS011;18701;45.588;5.288;2022-12-22T14:13:39;18.50;;;2.35;;
32200;SDS011;18701;45.588;5.288;2022-12-22T14:16:05;16.60;;;2.67;;
32200;SDS011;18701;45.588;5.288;2022-12-22T14:18:31;17.67;;;3.80;;
32200;SDS011;18701;45.588;5.288;2022-12-22T14:20:58;15.02;;;2.95;;
32200;SDS011;18701;45.588;5.288;2022-12-22T14:23:25;13.02;;;1.75;;
32200;SDS011;18701;45.588;5.288;2022-12-22T14:25:55;15.50;;;2.05;;
32200;SDS011;18701;45.588;5.288;2022-12-22T14:28:26;20.80;;;6.75;;
32200;SDS011;18701;45.588;5.288;2022-12-22T14:30:59;13.02;;;3.13;;
32200;SDS011;18701;45.588;5.288;2022-12-22T14:33:28;13.73;;;2.58;;
32200;SDS011;18701;45.588;5.288;2022-12-22T14:38:54;15.68;;;3.55;;
32200;SDS011;18701;45.588;5.288;2022-12-22T14:44:48;11.50;;;2.90;;
32200;SDS011;18701;45.588;5.288;2022-12-22T14:47:02;11.85;;;2.78;;
32200;SDS011;18701;45.588;5.288;2022-12-22T14:54:57;17.98;;;2.15;;
32200;SDS011;18701;45.588;5.288;2022-12-22T14:57:31;14.90;;;3.13;;
32200;SDS011;18701;45.588;5.288;2022-12-22T15:00:03;15.13;;;2.05;;
32200;SDS011;18701;45.588;5.288;2022-12-22T15:02:54;14.48;;;2.17;;
32200;SDS011;18701;45.588;5.288;2022-12-22T15:07:59;11.20;;;2.28;;
32200;SDS011;18701;45.588;5.288;2022-12-22T15:10:25;15.82;;;2.10;;
32200;SDS011;18701;45.588;5.288;2022-12-22T15:12:56;13.23;;;2.13;;
32200;SDS011;18701;45.588;5.288;2022-12-22T15:15:23;17.60;;;2.60;;
32200;SDS011;18701;45.588;5.288;2022-12-22T15:17:50;18.00;;;2.88;;
32200;SDS011;18701;45.588;5.288;2022-12-22T15:20:18;10.70;;;2.80;;
32200;SDS011;18701;45.588;5.288;2022-12-22T15:22:46;17.08;;;2.80;;
32200;SDS011;18701;45.588;5.288;2022-12-22T15:25:15;15.95;;;3.15;;
32200;SDS011;18701;45.588;5.288;2022-12-22T15:27:46;13.90;;;2.45;;
32200;SDS011;18701;45.588;5.288;2022-12-22T15:30:14;10.48;;;2.38;;
32200;SDS011;18701;45.588;5.288;2022-12-22T15:32:43;15.15;;;2.80;;
32200;SDS011;18701;45.588;5.288;2022-12-22T15:35:20;12.60;;;2.72;;
32200;SDS011;18701;45.588;5.288;2022-12-22T15:37:49;17.02;;;2.90;;
32200;SDS011;18701;45.588;5.288;2022-12-22T15:40:17;11.77;;;2.40;;
32200;SDS011;18701;45.588;5.288;2022-12-22T15:42:44;13.80;;;2.85;;
32200;SDS011;18701;45.588;5.288;2022-12-22T15:45:10;13.23;;;2.10;;
32200;SDS011;18701;45.588;5.288;2022-12-22T15:47:40;12.20;;;2.20;;
32200;SDS011;18701;45.588;5.288;2022-12-22T15:50:09;12.90;;;2.13;;
32200;SDS011;18701;45.588;5.288;2022-12-22T15:52:41;17.65;;;3.85;;
32200;SDS011;18701;45.588;5.288;2022-12-22T15:55:11;19.80;;;3.15;;
32200;SDS011;18701;45.588;5.288;2022-12-22T15:57:38;16.38;;;2.58;;
32200;SDS011;18701;45.588;5.288;2022-12-22T16:00:04;9.88;;;1.65;;
32200;SDS011;18701;45.588;5.288;2022-12-22T16:02:30;17.98;;;2.38;;
32200;SDS011;18701;45.588;5.288;2022-12-22T16:04:56;12.30;;;2.47;;
32200;SDS011;18701;45.588;5.288;2022-12-22T16:07:21;11.65;;;1.95;;
32200;SDS011;18701;45.588;5.288;2022-12-22T16:09:47;10.15;;;1.92;;
32200;SDS011;18701;45.588;5.288;2022-12-22T16:12:14;15.45;;;2.72;;
32200;SDS011;18701;45.588;5.288;2022-12-22T16:14:43;13.85;;;2.88;;
32200;SDS011;18701;45.588;5.288;2022-12-22T16:17:21;16.90;;;2.50;;
32200;SDS011;18701;45.588;5.288;2022-12-22T16:19:48;14.77;;;2.83;;
32200;SDS011;18701;45.588;5.288;2022-12-22T16:22:14;18.67;;;6.10;;
32200;SDS011;18701;45.588;5.288;2022-12-22T16:24:42;16.83;;;3.50;;
32200;SDS011;18701;45.588;5.288;2022-12-22T16:27:11;15.98;;;2.80;;
32200;SDS011;18701;45.588;5.288;2022-12-22T16:29:38;8.90;;;2.15;;
32200;SDS011;18701;45.588;5.288;2022-12-22T16:32:21;15.65;;;2.20;;
32200;SDS011;18701;45.588;5.288;2022-12-22T16:34:48;14.88;;;2.78;;
32200;SDS011;18701;45.588;5.288;2022-12-22T16:37:14;15.68;;;3.15;;
32200;SDS011;18701;45.588;5.288;2022-12-22T16:39:40;21.55;;;2.65;;
32200;SDS011;18701;45.588;5.288;2022-12-22T16:42:09;14.57;;;3.08;;
32200;SDS011;18701;45.588;5.288;2022-12-22T16:44:37;9.35;;;2.17;;
32200;SDS011;18701;45.588;5.288;2022-12-22T16:47:04;12.75;;;2.75;;
32200;SDS011;18701;45.588;5.288;2022-12-22T16:49:30;13.55;;;2.30;;
32200;SDS011;18701;45.588;5.288;2022-12-22T16:51:56;13.55;;;1.83;;
32200;SDS011;18701;45.588;5.288;2022-12-22T16:54:21;15.20;;;1.88;;
32200;SDS011;18701;45.588;5.288;2022-12-22T16:56:47;19.27;;;2.00;;
32200;SDS011;18701;45.588;5.288;2022-12-22T16:59:15;15.65;;;2.15;;
32200;SDS011;18701;45.588;5.288;2022-12-22T17:01:47;10.48;;;2.47;;
32200;SDS011;18701;45.588;5.288;2022-12-22T17:06:48;15.18;;;4.18;;
32200;SDS011;18701;45.588;5.288;2022-12-22T17:09:20;17.67;;;4.80;;
32200;SDS011;18701;45.588;5.288;2022-12-22T17:16:48;18.50;;;8.30;;
32200;SDS011;18701;45.588;5.288;2022-12-22T17:19:14;15.13;;;2.53;;
32200;SDS011;18701;45.588;5.288;2022-12-22T17:21:40;15.27;;;1.88;;